createdAt,value
2022-10-18T00:02:32.704Z,101192.65
2022-10-18T00:08:57.019Z,101196.08
2022-10-18T00:15:22.056Z,101205.73
2022-10-18T00:28:14.081Z,101206.36
2022-10-18T00:34:38.340Z,101209.77
2022-10-18T00:41:02.773Z,101205.18
2022-10-18T00:47:26.995Z,101197.88
2022-10-18T00:53:44.592Z,101193.23
2022-10-18T01:00:08.957Z,101188.61
2022-10-18T01:06:33.240Z,101186.29
2022-10-18T01:13:00.558Z,101183.60
2022-10-18T01:19:17.526Z,101174.61
2022-10-18T01:25:44.487Z,101164.36
2022-10-18T01:32:02.137Z,101153.02
2022-10-18T01:38:11.815Z,101136.64
2022-10-18T01:44:38.758Z,101120.42
2022-10-18T01:51:08.589Z,101114.88
2022-10-18T01:57:35.767Z,101114.01
2022-10-18T02:04:15.041Z,101110.38
2022-10-18T02:10:40.371Z,101114.91
2022-10-18T02:17:07.546Z,101111.52
2022-10-18T02:23:31.747Z,101117.12
2022-10-18T02:29:56.040Z,101120.73
2022-10-18T02:36:32.157Z,101115.55
2022-10-18T02:42:56.371Z,101115.64
2022-10-18T02:49:20.570Z,101115.42
2022-10-18T02:55:44.958Z,101116.20
2022-10-18T03:02:09.207Z,101112.81
2022-10-18T03:08:33.467Z,101111.92
2022-10-18T03:14:57.687Z,101110.27
2022-10-18T03:21:21.886Z,101109.85
2022-10-18T03:27:45.513Z,101106.36
2022-10-18T03:34:09.676Z,101106.52
2022-10-18T03:40:26.529Z,101107.33
2022-10-18T03:46:50.550Z,101109.16
2022-10-18T03:53:15.208Z,101103.82
2022-10-18T03:59:39.396Z,101102.88
2022-10-18T04:06:03.595Z,101101.92
2022-10-18T04:12:27.897Z,101096.77
2022-10-18T04:18:44.739Z,101094.80
2022-10-18T04:25:08.917Z,101097.16
2022-10-18T04:31:33.278Z,101097.77
2022-10-18T04:37:57.506Z,101094.64
2022-10-18T04:44:21.682Z,101090.59
2022-10-18T04:50:46.069Z,101093.52
2022-10-18T04:57:10.434Z,101095.98
2022-10-18T05:03:40.473Z,101097.64
2022-10-18T05:09:56.390Z,101100.87
2022-10-18T05:16:13.019Z,101103.06
2022-10-18T05:22:37.287Z,101105.24
2022-10-18T05:29:01.721Z,101112.82
2022-10-18T05:35:18.819Z,101114.64
2022-10-18T05:41:43.164Z,101112.02
2022-10-18T05:47:59.827Z,101120.56
2022-10-18T05:54:24.429Z,101127.28
2022-10-18T06:00:38.866Z,101140.72
2022-10-18T06:07:03.088Z,101148.98
2022-10-18T06:13:20.254Z,101147.42
2022-10-18T06:19:44.444Z,101147.80
2022-10-18T06:26:07.092Z,101143.21
2022-10-18T06:32:31.336Z,101151.80
2022-10-18T06:38:55.646Z,101157.21
2022-10-18T06:45:20.143Z,101163.88
2022-10-18T06:51:44.482Z,101158.59
2022-10-18T06:58:01.756Z,101154.17
2022-10-18T07:04:26.966Z,101156.42
2022-10-18T07:10:51.142Z,101149.83
2022-10-18T07:17:15.469Z,101149.52
2022-10-18T07:23:39.793Z,101144.20
2022-10-18T07:30:07.081Z,101142.75
2022-10-18T07:36:31.234Z,101140.73
2022-10-18T07:42:55.469Z,101136.61
2022-10-18T07:49:19.773Z,101134.98
2022-10-18T07:55:44.097Z,101134.39
2022-10-18T08:02:09.534Z,101137.21
2022-10-18T08:08:25.332Z,101137.23
2022-10-18T08:14:48.289Z,101139.17
2022-10-18T08:21:04.909Z,101133.95
2022-10-18T08:27:29.306Z,101127.45
2022-10-18T08:33:46.393Z,101117.81
2022-10-18T08:40:10.711Z,101099.48
2022-10-18T08:46:34.913Z,101088.70
2022-10-18T08:53:14.012Z,101089.95
2022-10-18T08:59:38.360Z,101091.31
2022-10-18T09:06:05.282Z,101087.56
2022-10-18T09:12:37.200Z,101075.65
2022-10-18T09:19:04.666Z,101069.69
2022-10-18T09:25:32.061Z,101073.04
2022-10-18T09:31:59.145Z,101069.56
2022-10-18T09:45:07.570Z,101063.15
2022-10-18T09:51:28.446Z,101060.97
2022-10-18T09:58:04.994Z,101058.17
2022-10-18T10:04:29.349Z,101047.34
2022-10-18T10:11:02.252Z,101037.64
2022-10-18T10:17:32.217Z,101023.16
2022-10-18T10:23:59.469Z,101012.40
2022-10-18T10:30:20.833Z,100998.47
2022-10-18T10:36:45.346Z,100986.83
2022-10-18T10:43:13.200Z,100978.64
2022-10-18T10:49:50.161Z,100966.14
2022-10-18T10:56:17.198Z,100960.30
2022-10-18T11:03:06.038Z,100949.31
2022-10-18T11:09:34.306Z,100936.31
2022-10-18T11:15:58.561Z,100927.83
2022-10-18T11:22:28.528Z,100916.44
2022-10-18T11:28:55.570Z,100912.66
2022-10-18T11:35:25.718Z,100906.20
2022-10-18T11:41:49.980Z,100899.92
2022-10-18T11:48:26.497Z,100900.92
2022-10-18T11:55:11.863Z,100895.12
2022-10-18T12:01:40.389Z,100892.02
2022-10-18T12:08:04.592Z,100884.60
2022-10-18T12:14:27.342Z,100875.91
2022-10-18T12:20:51.609Z,100864.52
2022-10-18T12:27:16.411Z,100851.54
2022-10-18T12:33:40.609Z,100842.95
2022-10-18T12:40:10.620Z,100828.95
2022-10-18T12:46:39.386Z,100816.86
2022-10-18T12:53:03.590Z,100804.16
2022-10-18T12:59:27.599Z,100794.19
2022-10-18T13:06:07.528Z,100782.83
2022-10-18T13:12:31.798Z,100767.71
2022-10-18T13:19:01.879Z,100768.83
2022-10-18T13:25:39.155Z,100763.88
2022-10-18T13:32:01.356Z,100761.23
2022-10-18T13:38:25.801Z,100754.86
2022-10-18T13:44:51.254Z,100745.83
2022-10-18T13:51:18.275Z,100743.72
2022-10-18T13:57:50.033Z,100729.91
2022-10-18T14:04:24.991Z,100716.04
2022-10-18T14:11:02.381Z,100699.62
2022-10-18T14:17:17.668Z,100691.40
2022-10-18T14:24:01.840Z,100689.73
2022-10-18T14:30:22.171Z,100679.89
2022-10-18T14:36:46.412Z,100668.66
2022-10-18T14:43:08.505Z,100669.80
2022-10-18T14:49:26.315Z,100658.81
2022-10-18T14:55:31.220Z,100637.38
2022-10-18T15:01:58.347Z,100631.51
2022-10-18T15:08:15.300Z,100627.46
2022-10-18T15:14:38.372Z,100625.90
2022-10-18T15:21:03.670Z,100628.16
2022-10-18T15:27:29.629Z,100624.89
2022-10-18T15:34:03.659Z,100616.61
2022-10-18T15:40:28.117Z,100607.20
2022-10-18T15:47:10.617Z,100601.16
2022-10-18T15:53:41.037Z,100590.58
2022-10-18T16:00:06.288Z,100593.65
2022-10-18T16:06:34.183Z,100586.73
2022-10-18T16:13:02.351Z,100592.23
2022-10-18T16:19:30.020Z,100596.59
2022-10-18T16:25:53.217Z,100609.61
2022-10-18T16:32:17.521Z,100630.73
2022-10-18T16:38:44.924Z,100649.11
2022-10-18T16:45:10.422Z,100671.77
2022-10-18T16:51:36.679Z,100679.45
2022-10-18T16:57:57.767Z,100685.33
2022-10-18T17:04:00.674Z,100683.21
2022-10-18T17:10:29.458Z,100687.70
2022-10-18T17:17:04.739Z,100697.29
2022-10-18T17:23:40.602Z,100711.73
2022-10-18T17:30:07.138Z,100724.45
2022-10-18T17:36:33.800Z,100729.23
2022-10-18T17:42:59.953Z,100728.91
2022-10-18T17:49:21.259Z,100724.76
2022-10-18T18:02:26.519Z,100745.10
2022-10-18T18:08:52.428Z,100746.39
2022-10-18T18:15:21.299Z,100761.69
2022-10-18T18:21:41.695Z,100772.10
2022-10-18T18:28:07.605Z,100776.63
2022-10-18T18:34:38.001Z,100781.96
2022-10-18T18:41:17.810Z,100775.00
2022-10-18T18:47:43.352Z,100754.20
2022-10-18T18:54:08.651Z,100752.18
2022-10-18T19:00:38.171Z,100748.25
2022-10-18T19:07:04.307Z,100734.14
2022-10-18T19:13:26.065Z,100742.42
2022-10-18T19:19:59.815Z,100761.24
2022-10-18T19:26:56.219Z,100781.00
2022-10-18T19:33:35.500Z,100796.42
2022-10-18T19:46:57.259Z,100799.63
2022-10-18T19:53:22.637Z,100806.55
2022-10-18T19:59:47.512Z,100805.22
2022-10-18T20:06:23.855Z,100799.09
2022-10-18T20:12:52.574Z,100807.89
2022-10-18T20:19:28.112Z,100796.39
2022-10-18T20:25:52.655Z,100788.05
2022-10-18T20:32:23.752Z,100784.92
2022-10-18T20:38:49.193Z,100793.94
2022-10-18T20:45:07.503Z,100791.10
2022-10-18T20:51:31.815Z,100790.58
2022-10-18T20:58:30.329Z,100790.31
2022-10-18T21:05:06.633Z,100784.58
2022-10-18T21:11:30.893Z,100785.89
2022-10-18T21:17:55.259Z,100789.35
2022-10-18T21:24:20.589Z,100785.34
2022-10-18T21:30:51.760Z,100781.44
2022-10-18T21:37:30.121Z,100786.48
2022-10-18T21:43:55.136Z,100787.06
2022-10-18T21:50:27.944Z,100788.40
2022-10-18T21:56:57.070Z,100785.98
2022-10-18T22:10:17.020Z,100774.30
2022-10-18T22:16:43.273Z,100771.38
2022-10-18T22:23:07.393Z,100774.23
2022-10-18T22:29:34.153Z,100771.82
2022-10-18T22:36:01.508Z,100769.16
2022-10-18T22:42:25.899Z,100764.82
2022-10-18T22:48:50.182Z,100763.58
2022-10-18T22:55:14.477Z,100759.90
2022-10-18T23:01:40.729Z,100760.95
2022-10-18T23:08:07.094Z,100759.79
2022-10-18T23:21:33.195Z,100759.41
2022-10-18T23:28:03.223Z,100755.56
2022-10-18T23:34:51.217Z,100745.95
2022-10-18T23:41:15.429Z,100746.61
2022-10-18T23:47:41.641Z,100753.72
2022-10-18T23:54:30.119Z,100753.94
